sensor_id;sensor_type;location;lat;lon;timestamp;pressure;altitude;pressure_sealevel;temperature;humidity
50444;BME280;36370;52.216;21.142;2022-09-09T00:01:46;100403.06;;;11.68;100.00
50444;BME280;36370;52.216;21.142;2022-09-09T00:19:28;100394.19;;;11.57;100.00
50444;BME280;36370;52.216;21.142;2022-09-09T00:27:50;100388.84;;;11.71;100.00
50444;BME280;36370;52.216;21.142;2022-09-09T00:31:56;100382.94;;;11.67;100.00
50444;BME280;36370;52.216;21.142;2022-09-09T00:36:02;100366.66;;;11.75;100.00
50444;BME280;36370;52.216;21.142;2022-09-09T00:40:21;100364.53;;;11.67;100.00
50444;BME280;36370;52.216;21.142;2022-09-09T00:48:54;100369.47;;;11.59;100.00
50444;BME280;36370;52.216;21.142;2022-09-09T00:57:31;100367.16;;;11.67;100.00
50444;BME280;36370;52.216;21.142;2022-09-09T01:01:33;100362.53;;;11.71;100.00
50444;BME280;36370;52.216;21.142;2022-09-09T01:10:26;100370.69;;;11.54;100.00
50444;BME280;36370;52.216;21.142;2022-09-09T01:18:45;100363.59;;;11.81;100.00
50444;BME280;36370;52.216;21.142;2022-09-09T01:27:09;100364.34;;;11.83;100.00
50444;BME280;36370;52.216;21.142;2022-09-09T01:31:17;100351.72;;;11.89;100.00
50444;BME280;36370;52.216;21.142;2022-09-09T01:35:42;100347.19;;;11.91;100.00
50444;BME280;36370;52.216;21.142;2022-09-09T01:39:46;100349.09;;;11.89;100.00
50444;BME280;36370;52.216;21.142;2022-09-09T01:43:53;100349.25;;;12.00;100.00
50444;BME280;36370;52.216;21.142;2022-09-09T01:47:57;100358.22;;;11.70;100.00
50444;BME280;36370;52.216;21.142;2022-09-09T01:52:14;100363.91;;;11.64;100.00
50444;BME280;36370;52.216;21.142;2022-09-09T02:01:43;100370.19;;;11.61;100.00
50444;BME280;36370;52.216;21.142;2022-09-09T02:09:29;100377.19;;;11.48;100.00
50444;BME280;36370;52.216;21.142;2022-09-09T02:13:36;100372.69;;;11.50;100.00
50444;BME280;36370;52.216;21.142;2022-09-09T02:17:41;100369.56;;;11.58;100.00
50444;BME280;36370;52.216;21.142;2022-09-09T02:21:50;100355.28;;;11.75;100.00
50444;BME280;36370;52.216;21.142;2022-09-09T02:25:55;100360.97;;;11.68;100.00
50444;BME280;36370;52.216;21.142;2022-09-09T02:30:01;100353.38;;;11.64;100.00
50444;BME280;36370;52.216;21.142;2022-09-09T02:34:13;100353.38;;;11.77;100.00
50444;BME280;36370;52.216;21.142;2022-09-09T02:38:19;100365.22;;;11.84;100.00
50444;BME280;36370;52.216;21.142;2022-09-09T02:42:39;100359.34;;;11.93;100.00
50444;BME280;36370;52.216;21.142;2022-09-09T02:47:35;100357.72;;;11.91;100.00
50444;BME280;36370;52.216;21.142;2022-09-09T02:51:30;100352.47;;;11.91;100.00
50444;BME280;36370;52.216;21.142;2022-09-09T02:55:48;100370.19;;;11.61;100.00
50444;BME280;36370;52.216;21.142;2022-09-09T02:59:58;100364.31;;;11.71;100.00
50444;BME280;36370;52.216;21.142;2022-09-09T03:04:01;100371.19;;;11.73;100.00
50444;BME280;36370;52.216;21.142;2022-09-09T03:08:04;100372.81;;;11.61;100.00
50444;BME280;36370;52.216;21.142;2022-09-09T03:12:10;100381.81;;;11.72;100.00
50444;BME280;36370;52.216;21.142;2022-09-09T03:16:14;100370.00;;;11.77;100.00
50444;BME280;36370;52.216;21.142;2022-09-09T03:20:21;100366.66;;;11.88;100.00
50444;BME280;36370;52.216;21.142;2022-09-09T03:24:25;100362.97;;;11.78;100.00
50444;BME280;36370;52.216;21.142;2022-09-09T03:28:28;100355.72;;;11.81;100.00
50444;BME280;36370;52.216;21.142;2022-09-09T03:32:36;100359.28;;;11.80;100.00
50444;BME280;36370;52.216;21.142;2022-09-09T03:36:38;100356.66;;;11.80;100.00
50444;BME280;36370;52.216;21.142;2022-09-09T03:40:49;100351.84;;;11.87;100.00
50444;BME280;36370;52.216;21.142;2022-09-09T03:44:51;100349.41;;;11.84;100.00
50444;BME280;36370;52.216;21.142;2022-09-09T03:48:57;100347.50;;;11.86;100.00
50444;BME280;36370;52.216;21.142;2022-09-09T03:53:00;100359.34;;;11.93;100.00
50444;BME280;36370;52.216;21.142;2022-09-09T03:57:03;100358.19;;;11.97;100.00
50444;BME280;36370;52.216;21.142;2022-09-09T04:01:10;100361.38;;;12.02;100.00
50444;BME280;36370;52.216;21.142;2022-09-09T04:05:17;100362.94;;;12.05;100.00
50444;BME280;36370;52.216;21.142;2022-09-09T04:09:21;100361.13;;;12.06;100.00
50444;BME280;36370;52.216;21.142;2022-09-09T04:13:25;100364.41;;;12.09;100.00
50444;BME280;36370;52.216;21.142;2022-09-09T04:17:29;100370.81;;;12.05;100.00
50444;BME280;36370;52.216;21.142;2022-09-09T04:21:32;100365.66;;;12.03;100.00
50444;BME280;36370;52.216;21.142;2022-09-09T04:25:36;100361.56;;;12.12;100.00
50444;BME280;36370;52.216;21.142;2022-09-09T04:29:38;100357.66;;;12.18;100.00
50444;BME280;36370;52.216;21.142;2022-09-09T04:33:40;100359.34;;;12.06;100.00
50444;BME280;36370;52.216;21.142;2022-09-09T04:37:44;100355.03;;;12.18;100.00
50444;BME280;36370;52.216;21.142;2022-09-09T04:41:46;100342.69;;;12.31;100.00
50444;BME280;36370;52.216;21.142;2022-09-09T04:45:50;100346.72;;;12.37;100.00
50444;BME280;36370;52.216;21.142;2022-09-09T04:49:56;100341.13;;;12.42;100.00
50444;BME280;36370;52.216;21.142;2022-09-09T04:54:00;100365.06;;;12.38;100.00
50444;BME280;36370;52.216;21.142;2022-09-09T04:58:06;100375.06;;;12.20;100.00
50444;BME280;36370;52.216;21.142;2022-09-09T05:02:09;100369.69;;;12.22;100.00
50444;BME280;36370;52.216;21.142;2022-09-09T05:06:15;100366.41;;;12.31;100.00
50444;BME280;36370;52.216;21.142;2022-09-09T05:10:17;100366.81;;;12.38;100.00
50444;BME280;36370;52.216;21.142;2022-09-09T05:14:44;100366.28;;;12.46;100.00
50444;BME280;36370;52.216;21.142;2022-09-09T05:18:46;100372.44;;;12.46;100.00
50444;BME280;36370;52.216;21.142;2022-09-09T05:22:52;100372.94;;;12.51;100.00
50444;BME280;36370;52.216;21.142;2022-09-09T05:26:57;100368.28;;;12.55;100.00
50444;BME280;36370;52.216;21.142;2022-09-09T05:31:06;100372.63;;;12.43;100.00
50444;BME280;36370;52.216;21.142;2022-09-09T05:35:15;100382.13;;;12.59;100.00
50444;BME280;36370;52.216;21.142;2022-09-09T05:39:18;100381.88;;;12.49;100.00
50444;BME280;36370;52.216;21.142;2022-09-09T05:43:20;100389.59;;;12.52;100.00
50444;BME280;36370;52.216;21.142;2022-09-09T05:47:23;100384.84;;;12.70;100.00
50444;BME280;36370;52.216;21.142;2022-09-09T05:51:27;100370.38;;;12.75;100.00
50444;BME280;36370;52.216;21.142;2022-09-09T05:55:34;100369.81;;;12.83;100.00
50444;BME280;36370;52.216;21.142;2022-09-09T05:59:38;100376.09;;;12.56;100.00
50444;BME280;36370;52.216;21.142;2022-09-09T06:03:42;100378.69;;;12.82;100.00
50444;BME280;36370;52.216;21.142;2022-09-09T06:07:45;100373.84;;;12.76;100.00
50444;BME280;36370;52.216;21.142;2022-09-09T06:11:48;100400.66;;;12.70;100.00
50444;BME280;36370;52.216;21.142;2022-09-09T06:15:53;100389.25;;;12.82;100.00
50444;BME280;36370;52.216;21.142;2022-09-09T06:19:55;100388.81;;;12.88;100.00
50444;BME280;36370;52.216;21.142;2022-09-09T06:23:58;100384.25;;;12.90;100.00
50444;BME280;36370;52.216;21.142;2022-09-09T06:28:02;100390.84;;;13.09;100.00
50444;BME280;36370;52.216;21.142;2022-09-09T06:32:05;100386.03;;;13.03;100.00
50444;BME280;36370;52.216;21.142;2022-09-09T06:40:20;100399.97;;;13.29;100.00
50444;BME280;36370;52.216;21.142;2022-09-09T06:44:22;100394.91;;;13.26;100.00
50444;BME280;36370;52.216;21.142;2022-09-09T06:48:25;100391.75;;;13.34;100.00
50444;BME280;36370;52.216;21.142;2022-09-09T06:52:35;100393.09;;;13.26;100.00
50444;BME280;36370;52.216;21.142;2022-09-09T06:56:48;100406.56;;;13.10;100.00
50444;BME280;36370;52.216;21.142;2022-09-09T07:01:04;100415.13;;;13.01;100.00
50444;BME280;36370;52.216;21.142;2022-09-09T07:05:09;100410.00;;;13.37;100.00
50444;BME280;36370;52.216;21.142;2022-09-09T07:09:14;100408.59;;;13.07;100.00
50444;BME280;36370;52.216;21.142;2022-09-09T07:13:24;100414.00;;;13.29;100.00
50444;BME280;36370;52.216;21.142;2022-09-09T07:17:28;100410.28;;;13.45;100.00
50444;BME280;36370;52.216;21.142;2022-09-09T07:21:34;100417.59;;;13.41;100.00
50444;BME280;36370;52.216;21.142;2022-09-09T07:25:36;100426.00;;;13.46;100.00
50444;BME280;36370;52.216;21.142;2022-09-09T07:29:38;100437.53;;;13.33;100.00
50444;BME280;36370;52.216;21.142;2022-09-09T07:33:43;100427.88;;;13.33;100.00
50444;BME280;36370;52.216;21.142;2022-09-09T07:37:47;100428.28;;;13.27;100.00
50444;BME280;36370;52.216;21.142;2022-09-09T07:41:54;100429.19;;;13.39;100.00
50444;BME280;36370;52.216;21.142;2022-09-09T07:45:58;100440.28;;;13.44;100.00
50444;BME280;36370;52.216;21.142;2022-09-09T07:50:00;100443.56;;;13.22;100.00
50444;BME280;36370;52.216;21.142;2022-09-09T07:54:09;100446.94;;;13.37;100.00
50444;BME280;36370;52.216;21.142;2022-09-09T07:58:12;100454.38;;;13.56;100.00
50444;BME280;36370;52.216;21.142;2022-09-09T08:02:15;100467.69;;;13.54;100.00
50444;BME280;36370;52.216;21.142;2022-09-09T08:06:18;100456.50;;;13.51;100.00
50444;BME280;36370;52.216;21.142;2022-09-09T08:10:21;100443.53;;;13.72;100.00
50444;BME280;36370;52.216;21.142;2022-09-09T08:14:25;100440.66;;;13.75;100.00
50444;BME280;36370;52.216;21.142;2022-09-09T08:18:27;100466.78;;;13.29;100.00
50444;BME280;36370;52.216;21.142;2022-09-09T08:22:30;100468.69;;;13.64;100.00
50444;BME280;36370;52.216;21.142;2022-09-09T08:26:35;100460.44;;;13.69;100.00
50444;BME280;36370;52.216;21.142;2022-09-09T08:30:40;100468.59;;;13.66;100.00
50444;BME280;36370;52.216;21.142;2022-09-09T08:34:42;100462.91;;;13.59;100.00
50444;BME280;36370;52.216;21.142;2022-09-09T08:38:55;100473.97;;;13.64;100.00
50444;BME280;36370;52.216;21.142;2022-09-09T08:43:00;100472.44;;;13.73;100.00
50444;BME280;36370;52.216;21.142;2022-09-09T08:51:27;100490.00;;;13.74;100.00
50444;BME280;36370;52.216;21.142;2022-09-09T08:55:42;100482.53;;;13.92;100.00
50444;BME280;36370;52.216;21.142;2022-09-09T08:59:45;100474.38;;;13.71;100.00
50444;BME280;36370;52.216;21.142;2022-09-09T09:04:01;100488.69;;;13.56;100.00
50444;BME280;36370;52.216;21.142;2022-09-09T09:12:29;100488.69;;;14.04;100.00
50444;BME280;36370;52.216;21.142;2022-09-09T09:16:42;100485.63;;;14.22;100.00
50444;BME280;36370;52.216;21.142;2022-09-09T09:20:56;100510.38;;;13.96;100.00
50444;BME280;36370;52.216;21.142;2022-09-09T09:29:17;100506.97;;;13.83;100.00
50444;BME280;36370;52.216;21.142;2022-09-09T09:37:31;100517.00;;;13.78;100.00
50444;BME280;36370;52.216;21.142;2022-09-09T09:41:42;100507.69;;;14.09;100.00
50444;BME280;36370;52.216;21.142;2022-09-09T09:45:46;100506.72;;;14.10;100.00
50444;BME280;36370;52.216;21.142;2022-09-09T09:50:17;100505.78;;;14.11;100.00
50444;BME280;36370;52.216;21.142;2022-09-09T09:54:28;100510.38;;;14.21;100.00
50444;BME280;36370;52.216;21.142;2022-09-09T10:02:49;100499.72;;;14.33;100.00
50444;BME280;36370;52.216;21.142;2022-09-09T10:06:58;100497.84;;;14.47;100.00
50444;BME280;36370;52.216;21.142;2022-09-09T10:15:48;100499.03;;;14.43;100.00
50444;BME280;36370;52.216;21.142;2022-09-09T10:33:02;100519.78;;;14.36;100.00
50444;BME280;36370;52.216;21.142;2022-09-09T10:37:15;100511.63;;;14.75;100.00
50444;BME280;36370;52.216;21.142;2022-09-09T10:54:41;100552.03;;;14.52;100.00
50444;BME280;36370;52.216;21.142;2022-09-09T10:59:04;100547.38;;;14.56;100.00
50444;BME280;36370;52.216;21.142;2022-09-09T11:03:24;100544.44;;;14.72;100.00
50444;BME280;36370;52.216;21.142;2022-09-09T11:07:55;100554.19;;;14.71;100.00
50444;BME280;36370;52.216;21.142;2022-09-09T11:12:00;100567.06;;;14.52;100.00
50444;BME280;36370;52.216;21.142;2022-09-09T11:20:16;100567.88;;;14.77;100.00
50444;BME280;36370;52.216;21.142;2022-09-09T11:24:25;100567.97;;;14.64;100.00
50444;BME280;36370;52.216;21.142;2022-09-09T11:42:22;100566.84;;;15.02;100.00
50444;BME280;36370;52.216;21.142;2022-09-09T11:46:35;100567.06;;;14.87;100.00
50444;BME280;36370;52.216;21.142;2022-09-09T11:50:40;100549.66;;;15.19;100.00
50444;BME280;36370;52.216;21.142;2022-09-09T11:54:48;100548.69;;;15.20;100.00
50444;BME280;36370;52.216;21.142;2022-09-09T11:59:03;100528.00;;;15.25;100.00
50444;BME280;36370;52.216;21.142;2022-09-09T12:07:57;100538.09;;;15.08;100.00
50444;BME280;36370;52.216;21.142;2022-09-09T12:16:33;100539.19;;;15.17;100.00
50444;BME280;36370;52.216;21.142;2022-09-09T12:20:36;100548.81;;;15.18;100.00
50444;BME280;36370;52.216;21.142;2022-09-09T12:24:43;100565.41;;;15.09;100.00
50444;BME280;36370;52.216;21.142;2022-09-09T12:29:00;100560.22;;;14.96;100.00
50444;BME280;36370;52.216;21.142;2022-09-09T12:33:17;100575.22;;;14.84;100.00
50444;BME280;36370;52.216;21.142;2022-09-09T12:37:35;100551.19;;;15.10;100.00
50444;BME280;36370;52.216;21.142;2022-09-09T12:41:38;100551.81;;;15.02;100.00
50444;BME280;36370;52.216;21.142;2022-09-09T12:45:41;100557.94;;;15.03;100.00
50444;BME280;36370;52.216;21.142;2022-09-09T12:49:43;100563.00;;;14.95;100.00
50444;BME280;36370;52.216;21.142;2022-09-09T12:53:45;100553.72;;;15.12;100.00
50444;BME280;36370;52.216;21.142;2022-09-09T12:57:49;100538.69;;;15.23;100.00
50444;BME280;36370;52.216;21.142;2022-09-09T13:01:59;100552.06;;;15.11;100.00
50444;BME280;36370;52.216;21.142;2022-09-09T13:06:13;100558.06;;;15.47;100.00
50444;BME280;36370;52.216;21.142;2022-09-09T13:10:24;100542.19;;;15.24;100.00
50444;BME280;36370;52.216;21.142;2022-09-09T13:14:47;100555.91;;;15.06;100.00
50444;BME280;36370;52.216;21.142;2022-09-09T13:18:52;100555.31;;;14.92;100.00
50444;BME280;36370;52.216;21.142;2022-09-09T13:22:55;100551.56;;;15.05;100.00
50444;BME280;36370;52.216;21.142;2022-09-09T13:27:00;100549.88;;;15.27;100.00
50444;BME280;36370;52.216;21.142;2022-09-09T13:31:20;100551.69;;;15.26;100.00
50444;BME280;36370;52.216;21.142;2022-09-09T13:35:23;100540.50;;;15.00;100.00
50444;BME280;36370;52.216;21.142;2022-09-09T13:39:26;100533.41;;;15.12;100.00
50444;BME280;36370;52.216;21.142;2022-09-09T13:43:30;100532.31;;;15.15;100.00
50444;BME280;36370;52.216;21.142;2022-09-09T13:47:35;100519.31;;;15.34;100.00
50444;BME280;36370;52.216;21.142;2022-09-09T13:51:42;100532.22;;;15.28;100.00
50444;BME280;36370;52.216;21.142;2022-09-09T13:55:49;100515.94;;;15.55;100.00
50444;BME280;36370;52.216;21.142;2022-09-09T13:59:54;100516.69;;;15.34;100.00
50444;BME280;36370;52.216;21.142;2022-09-09T14:04:08;100542.06;;;15.25;100.00
50444;BME280;36370;52.216;21.142;2022-09-09T14:08:22;100552.91;;;15.11;100.00
50444;BME280;36370;52.216;21.142;2022-09-09T14:12:26;100545.22;;;15.31;100.00
50444;BME280;36370;52.216;21.142;2022-09-09T14:16:28;100558.44;;;15.08;100.00
50444;BME280;36370;52.216;21.142;2022-09-09T14:20:31;100562.88;;;15.19;100.00
50444;BME280;36370;52.216;21.142;2022-09-09T14:24:34;100564.22;;;15.24;100.00
50444;BME280;36370;52.216;21.142;2022-09-09T14:28:37;100546.88;;;15.20;100.00
50444;BME280;36370;52.216;21.142;2022-09-09T14:32:56;100548.34;;;15.24;100.00
50444;BME280;36370;52.216;21.142;2022-09-09T14:36:59;100551.19;;;15.10;100.00
50444;BME280;36370;52.216;21.142;2022-09-09T14:41:01;100571.19;;;15.14;100.00
50444;BME280;36370;52.216;21.142;2022-09-09T14:45:06;100530.03;;;15.33;100.00
50444;BME280;36370;52.216;21.142;2022-09-09T14:49:08;100548.81;;;15.30;100.00
50444;BME280;36370;52.216;21.142;2022-09-09T14:53:12;100541.97;;;15.38;100.00
50444;BME280;36370;52.216;21.142;2022-09-09T14:57:14;100541.69;;;15.30;100.00
50444;BME280;36370;52.216;21.142;2022-09-09T15:01:18;100558.56;;;15.29;100.00
50444;BME280;36370;52.216;21.142;2022-09-09T15:05:21;100542.78;;;15.50;100.00
50444;BME280;36370;52.216;21.142;2022-09-09T15:09:24;100555.91;;;15.18;100.00
50444;BME280;36370;52.216;21.142;2022-09-09T15:13:26;100545.53;;;15.49;100.00
50444;BME280;36370;52.216;21.142;2022-09-09T15:17:29;100527.88;;;15.49;100.00
50444;BME280;36370;52.216;21.142;2022-09-09T15:21:33;100539.16;;;15.51;100.00
50444;BME280;36370;52.216;21.142;2022-09-09T15:25:36;100544.59;;;15.27;100.00
50444;BME280;36370;52.216;21.142;2022-09-09T15:29:38;100537.50;;;15.39;100.00
50444;BME280;36370;52.216;21.142;2022-09-09T15:33:41;100560.84;;;15.22;100.00
50444;BME280;36370;52.216;21.142;2022-09-09T15:37:43;100554.56;;;15.35;100.00
50444;BME280;36370;52.216;21.142;2022-09-09T15:41:46;100561.22;;;15.29;100.00
50444;BME280;36370;52.216;21.142;2022-09-09T15:45:54;100556.63;;;15.31;100.00
50444;BME280;36370;52.216;21.142;2022-09-09T15:50:00;100569.75;;;15.21;100.00
50444;BME280;36370;52.216;21.142;2022-09-09T15:54:03;100561.94;;;15.20;100.00
50444;BME280;36370;52.216;21.142;2022-09-09T15:58:05;100560.59;;;15.25;100.00
50444;BME280;36370;52.216;21.142;2022-09-09T16:02:09;100569.75;;;15.21;100.00
50444;BME280;36370;52.216;21.142;2022-09-09T16:06:13;100568.19;;;15.19;100.00
50444;BME280;36370;52.216;21.142;2022-09-09T16:10:16;100550.47;;;15.19;100.00
50444;BME280;36370;52.216;21.142;2022-09-09T16:14:18;100547.94;;;15.18;100.00
50444;BME280;36370;52.216;21.142;2022-09-09T16:18:20;100556.25;;;15.13;100.00
50444;BME280;36370;52.216;21.142;2022-09-09T16:22:23;100550.97;;;15.13;100.00
50444;BME280;36370;52.216;21.142;2022-09-09T16:26:30;100548.78;;;15.07;100.00
50444;BME280;36370;52.216;21.142;2022-09-09T16:30:33;100549.91;;;15.04;100.00
50444;BME280;36370;52.216;21.142;2022-09-09T16:34:38;100556.13;;;15.03;100.00
50444;BME280;36370;52.216;21.142;2022-09-09T16:38:41;100555.78;;;15.08;100.00
50444;BME280;36370;52.216;21.142;2022-09-09T16:42:44;100552.53;;;15.04;100.00
50444;BME280;36370;52.216;21.142;2022-09-09T16:46:47;100546.53;;;15.02;100.00
50444;BME280;36370;52.216;21.142;2022-09-09T16:51:07;100557.31;;;14.77;100.00
50444;BME280;36370;52.216;21.142;2022-09-09T16:55:12;100560.94;;;14.87;100.00
50444;BME280;36370;52.216;21.142;2022-09-09T16:59:20;100545.91;;;14.87;100.00
50444;BME280;36370;52.216;21.142;2022-09-09T17:03:23;100555.03;;;14.83;100.00
50444;BME280;36370;52.216;21.142;2022-09-09T17:07:25;100554.31;;;14.81;100.00
50444;BME280;36370;52.216;21.142;2022-09-09T17:11:29;100566.81;;;14.79;100.00
50444;BME280;36370;52.216;21.142;2022-09-09T17:15:31;100585.81;;;14.73;100.00
50444;BME280;36370;52.216;21.142;2022-09-09T17:19:34;100588.31;;;14.75;100.00
50444;BME280;36370;52.216;21.142;2022-09-09T17:23:36;100580.63;;;14.71;100.00
50444;BME280;36370;52.216;21.142;2022-09-09T17:27:42;100570.53;;;14.77;100.00
50444;BME280;36370;52.216;21.142;2022-09-09T17:31:44;100570.41;;;14.78;100.00
50444;BME280;36370;52.216;21.142;2022-09-09T17:35:48;100584.94;;;14.72;100.00
50444;BME280;36370;52.216;21.142;2022-09-09T17:39:54;100582.91;;;14.76;100.00
50444;BME280;36370;52.216;21.142;2022-09-09T17:43:57;100595.19;;;14.53;100.00
50444;BME280;36370;52.216;21.142;2022-09-09T17:48:00;100597.78;;;14.66;100.00
50444;BME280;36370;52.216;21.142;2022-09-09T17:52:02;100596.84;;;14.67;100.00
50444;BME280;36370;52.216;21.142;2022-09-09T17:56:10;100593.31;;;14.66;100.00
50444;BME280;36370;52.216;21.142;2022-09-09T18:00:16;100584.22;;;14.70;100.00
50444;BME280;36370;52.216;21.142;2022-09-09T18:04:20;100584.06;;;14.61;100.00
50444;BME280;36370;52.216;21.142;2022-09-09T18:08:23;100599.06;;;14.60;100.00
50444;BME280;36370;52.216;21.142;2022-09-09T18:12:25;100585.50;;;14.65;100.00
50444;BME280;36370;52.216;21.142;2022-09-09T18:16:31;100609.44;;;14.63;100.00
50444;BME280;36370;52.216;21.142;2022-09-09T18:20:36;100615.94;;;14.46;100.00
50444;BME280;36370;52.216;21.142;2022-09-09T18:24:38;100618.09;;;14.41;100.00
50444;BME280;36370;52.216;21.142;2022-09-09T18:28:41;100623.16;;;14.44;100.00
50444;BME280;36370;52.216;21.142;2022-09-09T18:32:48;100624.72;;;14.47;100.00
50444;BME280;36370;52.216;21.142;2022-09-09T18:36:53;100631.31;;;14.41;100.00
50444;BME280;36370;52.216;21.142;2022-09-09T18:40:57;100630.97;;;14.46;100.00
50444;BME280;36370;52.216;21.142;2022-09-09T18:45:00;100626.19;;;14.27;100.00
50444;BME280;36370;52.216;21.142;2022-09-09T18:49:03;100631.19;;;14.43;100.00
50444;BME280;36370;52.216;21.142;2022-09-09T18:53:06;100634.63;;;14.32;100.00
50444;BME280;36370;52.216;21.142;2022-09-09T18:57:08;100631.41;;;14.40;100.00
50444;BME280;36370;52.216;21.142;2022-09-09T19:01:14;100613.69;;;14.53;100.00
50444;BME280;36370;52.216;21.142;2022-09-09T19:05:17;100614.53;;;14.53;100.00
50444;BME280;36370;52.216;21.142;2022-09-09T19:09:18;100625.41;;;14.38;100.00
50444;BME280;36370;52.216;21.142;2022-09-09T19:13:21;100637.38;;;14.30;100.00
50444;BME280;36370;52.216;21.142;2022-09-09T19:17:24;100647.16;;;14.17;100.00
50444;BME280;36370;52.216;21.142;2022-09-09T19:21:33;100639.19;;;14.30;100.00
50444;BME280;36370;52.216;21.142;2022-09-09T19:25:38;100633.06;;;14.29;100.00
50444;BME280;36370;52.216;21.142;2022-09-09T19:29:44;100647.91;;;14.19;100.00
50444;BME280;36370;52.216;21.142;2022-09-09T19:33:46;100648.50;;;13.98;100.00
50444;BME280;36370;52.216;21.142;2022-09-09T19:37:49;100644.63;;;14.15;100.00
50444;BME280;36370;52.216;21.142;2022-09-09T19:41:52;100634.28;;;14.12;100.00
50444;BME280;36370;52.216;21.142;2022-09-09T19:45:56;100625.47;;;14.25;100.00
50444;BME280;36370;52.216;21.142;2022-09-09T19:49:59;100641.44;;;14.23;100.00
50444;BME280;36370;52.216;21.142;2022-09-09T19:54:07;100643.88;;;14.13;100.00
50444;BME280;36370;52.216;21.142;2022-09-09T19:58:10;100640.91;;;14.18;100.00
50444;BME280;36370;52.216;21.142;2022-09-09T20:02:14;100643.31;;;14.21;100.00
50444;BME280;36370;52.216;21.142;2022-09-09T20:06:19;100644.09;;;13.86;100.00
50444;BME280;36370;52.216;21.142;2022-09-09T20:10:22;100640.97;;;14.05;100.00
50444;BME280;36370;52.216;21.142;2022-09-09T20:14:24;100634.41;;;14.11;100.00
50444;BME280;36370;52.216;21.142;2022-09-09T20:18:31;100641.00;;;13.92;100.00
50444;BME280;36370;52.216;21.142;2022-09-09T20:22:33;100657.94;;;13.77;100.00
50444;BME280;36370;52.216;21.142;2022-09-09T20:26:35;100648.94;;;13.92;100.00
50444;BME280;36370;52.216;21.142;2022-09-09T20:30:38;100644.81;;;13.88;100.00
50444;BME280;36370;52.216;21.142;2022-09-09T20:34:41;100657.06;;;13.89;100.00
50444;BME280;36370;52.216;21.142;2022-09-09T20:38:54;100642.34;;;13.98;100.00
50444;BME280;36370;52.216;21.142;2022-09-09T20:42:59;100642.78;;;13.92;100.00
50444;BME280;36370;52.216;21.142;2022-09-09T20:47:01;100647.84;;;13.95;100.00
50444;BME280;36370;52.216;21.142;2022-09-09T20:51:07;100652.19;;;13.96;100.00
50444;BME280;36370;52.216;21.142;2022-09-09T20:55:11;100658.22;;;13.85;100.00
50444;BME280;36370;52.216;21.142;2022-09-09T20:59:17;100656.31;;;13.87;100.00
50444;BME280;36370;52.216;21.142;2022-09-09T21:03:19;100642.06;;;13.90;100.00
50444;BME280;36370;52.216;21.142;2022-09-09T21:07:21;100652.63;;;13.90;100.00
50444;BME280;36370;52.216;21.142;2022-09-09T21:11:23;100656.00;;;13.92;100.00
50444;BME280;36370;52.216;21.142;2022-09-09T21:15:26;100660.94;;;13.96;100.00
50444;BME280;36370;52.216;21.142;2022-09-09T21:19:28;100673.03;;;13.88;100.00
50444;BME280;36370;52.216;21.142;2022-09-09T21:23:31;100660.94;;;13.96;100.00
50444;BME280;36370;52.216;21.142;2022-09-09T21:27:33;100664.34;;;13.98;100.00
50444;BME280;36370;52.216;21.142;2022-09-09T21:31:35;100660.13;;;13.96;100.00
50444;BME280;36370;52.216;21.142;2022-09-09T21:35:40;100659.38;;;13.94;100.00
50444;BME280;36370;52.216;21.142;2022-09-09T21:39:42;100667.19;;;13.82;100.00
50444;BME280;36370;52.216;21.142;2022-09-09T21:43:49;100666.59;;;13.79;100.00
50444;BME280;36370;52.216;21.142;2022-09-09T21:47:52;100669.94;;;13.81;100.00
50444;BME280;36370;52.216;21.142;2022-09-09T21:51:54;100670.94;;;13.80;100.00
50444;BME280;36370;52.216;21.142;2022-09-09T21:56:00;100662.69;;;13.59;100.00
50444;BME280;36370;52.216;21.142;2022-09-09T22:00:06;100664.28;;;13.61;100.00
50444;BME280;36370;52.216;21.142;2022-09-09T22:04:13;100669.47;;;13.50;100.00
50444;BME280;36370;52.216;21.142;2022-09-09T22:08:17;100668.91;;;13.58;100.00
50444;BME280;36370;52.216;21.142;2022-09-09T22:12:19;100667.00;;;13.73;100.00
50444;BME280;36370;52.216;21.142;2022-09-09T22:16:22;100669.75;;;13.71;100.00
50444;BME280;36370;52.216;21.142;2022-09-09T22:20:25;100664.78;;;13.79;100.00
50444;BME280;36370;52.216;21.142;2022-09-09T22:24:27;100659.16;;;13.84;100.00
50444;BME280;36370;52.216;21.142;2022-09-09T22:28:33;100663.31;;;13.75;100.00
50444;BME280;36370;52.216;21.142;2022-09-09T22:32:36;100660.78;;;13.74;100.00
50444;BME280;36370;52.216;21.142;2022-09-09T22:36:39;100659.31;;;13.70;100.00
50444;BME280;36370;52.216;21.142;2022-09-09T22:40:41;100668.16;;;13.69;100.00
50444;BME280;36370;52.216;21.142;2022-09-09T22:44:43;100661.63;;;13.74;100.00
50444;BME280;36370;52.216;21.142;2022-09-09T22:48:45;100671.66;;;13.56;100.00
50444;BME280;36370;52.216;21.142;2022-09-09T22:52:48;100649.38;;;13.73;100.00
50444;BME280;36370;52.216;21.142;2022-09-09T22:56:50;100651.19;;;13.60;100.00
50444;BME280;36370;52.216;21.142;2022-09-09T23:00:53;100655.81;;;13.56;100.00
50444;BME280;36370;52.216;21.142;2022-09-09T23:04:59;100650.13;;;13.62;100.00